Time;durP1;ratioP1;P1;durP2;ratioP2;P2;SDS_P1;SDS_P2;PMS_P1;PMS_P2;Temp;Humidity;BMP_temperature;BMP_pressure;BME280_temperature;BME280_humidity;BME280_pressure;Samples;Min_cycle;Max_cycle;Signal;HPM_P1;HPM_P2
2022/11/12 00:00:51;;;;;;;;;;;;;;;7.87;65.23;96918.03;5070991;28;20013;-65
2022/11/12 00:03:16;;;;;;;;;;;;;;;7.81;65.34;96910.00;5066435;28;20064;-65
2022/11/12 00:05:42;;;;;;;;;;;;;;;7.76;65.44;96914.41;5069919;28;20020;-65
2022/11/12 00:08:07;;;;;;;;;;;;;;;7.71;65.56;96915.16;5070035;28;20054;-65
2022/11/12 00:10:33;;;;;;;;;;;;;;;7.69;65.50;96906.66;5070740;28;20015;-67
2022/11/12 00:12:58;;;;;;;;;;;;;;;7.66;65.40;96912.41;5071516;28;20013;-65
2022/11/12 00:15:25;;;;;;;;;;;;;;;7.65;65.51;96905.53;5067974;28;20117;-67
2022/11/12 00:17:50;;;;;;;;;;;;;;;7.48;65.46;96910.81;5070513;28;20368;-65
2022/11/12 00:20:15;;;;;;;;;;;;;;;7.35;66.61;96912.97;5069935;28;20100;-64
2022/11/12 00:22:40;;;;;;;;;;;;;;;7.33;66.36;96909.78;5062346;28;20062;-65
2022/11/12 00:25:06;;;;;;;;;;;;;;;7.09;67.37;96909.09;5080768;28;20048;-66
2022/11/12 00:27:32;;;;;;;;;;;;;;;6.98;68.12;96900.19;5071907;28;20013;-64
2022/11/12 00:29:57;;;;;;;;;;;;;;;7.01;67.37;96903.16;5065144;28;20017;-66
2022/11/12 00:32:22;;;;;;;;;;;;;;;7.05;67.57;96908.75;5064890;28;20009;-64
2022/11/12 00:34:47;;;;;;;;;;;;;;;7.04;67.15;96909.81;5064406;28;20017;-65
2022/11/12 00:37:12;;;;;;;;;;;;;;;6.80;67.48;96909.09;5070167;28;20017;-65
2022/11/12 00:39:38;;;;;;;;;;;;;;;6.51;68.19;96905.66;5069778;28;20531;-66
2022/11/12 00:42:03;;;;;;;;;;;;;;;6.56;69.18;96902.31;5070855;28;20013;-63
2022/11/12 00:44:28;;;;;;;;;;;;;;;6.50;69.37;96901.41;5069577;28;20009;-67
2022/11/12 00:46:57;;;;;;;;;;;;;;;6.54;68.38;96907.00;5067234;28;20040;-64
2022/11/12 00:49:22;;;;;;;;;;;;;;;6.52;69.19;96904.59;5070306;28;20018;-64
2022/11/12 00:51:48;;;;;;;;;;;;;;;6.57;69.00;96907.34;5063547;28;20355;-64
2022/11/12 00:54:13;;;;;;;;;;;;;;;6.71;68.77;96913.97;5050172;28;20473;-64
2022/11/12 00:56:38;;;;;;;;;;;;;;;6.74;68.59;96910.84;5066841;28;20374;-65
2022/11/12 00:59:04;;;;;;;;;;;;;;;6.75;68.71;96915.09;5066642;28;20120;-65
2022/11/12 01:01:29;;;;;;;;;;;;;;;6.55;68.97;96912.06;5062981;28;20509;-65
2022/11/12 01:03:55;;;;;;;;;;;;;;;6.09;69.41;96927.00;5068661;28;20013;-65
2022/11/12 01:06:21;;;;;;;;;;;;;;;5.70;71.26;96921.34;5067172;28;20013;-65
2022/11/12 01:08:47;;;;;;;;;;;;;;;5.55;71.53;96915.69;5070462;28;20016;-65
2022/11/12 01:11:14;;;;;;;;;;;;;;;5.58;71.87;96911.78;5070193;28;20013;-65
2022/11/12 01:13:40;;;;;;;;;;;;;;;5.59;72.38;96914.22;5068891;28;20017;-65
2022/11/12 01:16:07;;;;;;;;;;;;;;;5.95;71.67;96913.22;5060799;28;20013;-63
2022/11/12 01:18:32;;;;;;;;;;;;;;;5.47;73.43;96903.63;5081671;28;20473;-63
2022/11/12 01:21:01;;;;;;;;;;;;;;;5.27;74.78;96902.31;5067837;28;20150;-64
2022/11/12 01:23:26;;;;;;;;;;;;;;;5.82;72.75;96907.31;5063845;28;20013;-62
2022/11/12 01:25:52;;;;;;;;;;;;;;;5.44;73.45;96901.44;5068967;28;20024;-66
2022/11/12 01:28:17;;;;;;;;;;;;;;;5.19;74.14;96893.72;5069185;28;20013;-63
2022/11/12 01:30:42;;;;;;;;;;;;;;;5.57;72.68;96900.41;5068265;28;20013;-67
2022/11/12 01:33:07;;;;;;;;;;;;;;;5.70;73.03;96899.41;5057150;28;20496;-65
2022/11/12 01:35:32;;;;;;;;;;;;;;;5.43;73.38;96888.50;5069871;28;20010;-64
2022/11/12 01:37:58;;;;;;;;;;;;;;;6.27;71.39;96886.41;5070555;28;20045;-66
2022/11/12 01:40:23;;;;;;;;;;;;;;;5.94;70.85;96879.91;5068498;28;20345;-67
2022/11/12 01:42:52;;;;;;;;;;;;;;;5.46;72.75;96886.19;5068403;28;20017;-65
2022/11/12 01:45:18;;;;;;;;;;;;;;;5.24;74.02;96879.06;5067559;28;20013;-66
2022/11/12 01:47:43;;;;;;;;;;;;;;;5.16;74.45;96886.25;5068828;28;20020;-66
2022/11/12 01:50:26;;;;;;;;;;;;;;;4.92;74.26;96887.25;5067515;28;20204;-64
2022/11/12 01:52:55;;;;;;;;;;;;;;;5.09;74.63;96884.75;5069853;28;20005;-66
2022/11/12 01:55:26;;;;;;;;;;;;;;;5.27;74.53;96887.31;5068274;28;20009;-63
2022/11/12 01:57:55;;;;;;;;;;;;;;;6.03;72.22;96888.25;5067411;28;20017;-66
2022/11/12 02:00:20;;;;;;;;;;;;;;;5.84;72.09;96882.31;5060738;28;20259;-65
2022/11/12 02:02:50;;;;;;;;;;;;;;;5.53;71.30;96879.97;5060300;28;20494;-67
2022/11/12 02:05:16;;;;;;;;;;;;;;;5.14;72.48;96867.22;5049397;28;20014;-67
2022/11/12 02:07:42;;;;;;;;;;;;;;;4.96;73.72;96872.56;5048718;28;20010;-67
2022/11/12 02:10:08;;;;;;;;;;;;;;;4.85;74.54;96863.59;5067207;28;20016;-67
2022/11/12 02:15:19;;;;;;;;;;;;;;;4.80;75.41;96863.47;5068353;28;20020;-65
2022/11/12 02:17:44;;;;;;;;;;;;;;;4.78;74.98;96859.44;5069795;28;20005;-67
2022/11/12 02:20:10;;;;;;;;;;;;;;;5.36;74.02;96859.56;5067473;28;20075;-66
2022/11/12 02:22:35;;;;;;;;;;;;;;;5.50;72.78;96857.50;5069044;28;20531;-67
2022/11/12 02:25:00;;;;;;;;;;;;;;;5.31;73.81;96854.16;5068968;28;20060;-67
2022/11/12 02:27:26;;;;;;;;;;;;;;;5.08;74.64;96851.50;5067824;28;20074;-67
2022/11/12 02:29:51;;;;;;;;;;;;;;;5.23;74.05;96851.88;5067925;28;20301;-65
2022/11/12 02:32:16;;;;;;;;;;;;;;;5.93;72.90;96857.16;5068119;28;20017;-66
2022/11/12 02:34:42;;;;;;;;;;;;;;;6.38;71.75;96863.63;5068193;28;20028;-66
2022/11/12 02:37:07;;;;;;;;;;;;;;;6.40;70.53;96853.63;5068012;28;20023;-66
2022/11/12 02:39:32;;;;;;;;;;;;;;;6.20;70.74;96852.19;5068153;28;20009;-66
2022/11/12 02:41:57;;;;;;;;;;;;;;;6.23;70.41;96850.91;5068494;28;20021;-67
2022/11/12 02:44:23;;;;;;;;;;;;;;;6.61;69.78;96852.97;5068467;28;20010;-67
2022/11/12 02:46:48;;;;;;;;;;;;;;;6.49;68.70;96845.06;5067036;28;20021;-67
2022/11/12 02:49:13;;;;;;;;;;;;;;;6.92;68.50;96851.66;5067321;28;20020;-67
2022/11/12 02:51:38;;;;;;;;;;;;;;;6.92;67.79;96838.44;5063658;28;20384;-67
2022/11/12 02:54:03;;;;;;;;;;;;;;;7.00;67.59;96834.59;5067535;28;20023;-67
2022/11/12 02:56:29;;;;;;;;;;;;;;;7.17;67.26;96843.34;5067984;28;20013;-67
2022/11/12 02:58:54;;;;;;;;;;;;;;;7.13;66.81;96839.59;5068312;28;20393;-67
2022/11/12 03:01:19;;;;;;;;;;;;;;;6.96;67.27;96841.38;5068325;28;20350;-67
2022/11/12 03:03:44;;;;;;;;;;;;;;;6.55;67.82;96830.09;5067969;28;20527;-67
2022/11/12 03:06:10;;;;;;;;;;;;;;;6.31;68.48;96844.47;5070069;28;20112;-68
2022/11/12 03:08:35;;;;;;;;;;;;;;;6.73;68.14;96839.69;5070702;28;20013;-67
2022/11/12 03:11:05;;;;;;;;;;;;;;;6.86;67.15;96849.97;5071072;28;20009;-67
2022/11/12 03:13:30;;;;;;;;;;;;;;;6.83;67.79;96839.06;5073332;28;20505;-67
2022/11/12 03:15:59;;;;;;;;;;;;;;;6.78;67.29;96842.41;5071662;28;20020;-67
2022/11/12 03:18:24;;;;;;;;;;;;;;;6.55;67.51;96853.88;5071916;28;20010;-66
2022/11/12 03:20:50;;;;;;;;;;;;;;;6.93;67.03;96847.97;5066277;28;20020;-67
2022/11/12 03:23:16;;;;;;;;;;;;;;;6.94;67.75;96849.56;5071918;28;20005;-67
2022/11/12 03:25:41;;;;;;;;;;;;;;;6.98;67.25;96857.84;5070637;28;20062;-67
2022/11/12 03:28:07;;;;;;;;;;;;;;;6.79;67.79;96859.88;5071938;28;20107;-67
2022/11/12 03:30:34;;;;;;;;;;;;;;;6.61;68.98;96868.03;5071791;28;20066;-66
2022/11/12 03:32:59;;;;;;;;;;;;;;;6.58;68.43;96863.22;5073152;28;20108;-66
2022/11/12 03:35:25;;;;;;;;;;;;;;;6.78;68.67;96863.59;5070430;28;20044;-67
2022/11/12 03:37:51;;;;;;;;;;;;;;;6.99;68.61;96870.84;5071462;28;20012;-66
2022/11/12 03:40:16;;;;;;;;;;;;;;;7.16;68.28;96865.56;5071091;28;20103;-66
2022/11/12 03:42:46;;;;;;;;;;;;;;;7.00;66.80;96871.63;5071213;28;20053;-66
2022/11/12 03:45:11;;;;;;;;;;;;;;;7.13;67.28;96865.25;5071261;28;20018;-65
2022/11/12 03:47:40;;;;;;;;;;;;;;;6.23;69.01;96877.31;5072595;28;20016;-66
2022/11/12 03:50:06;;;;;;;;;;;;;;;6.09;71.08;96879.44;5070478;28;20013;-66
2022/11/12 03:52:31;;;;;;;;;;;;;;;6.27;71.11;96878.47;5060349;28;20545;-66
2022/11/12 03:54:56;;;;;;;;;;;;;;;5.54;71.26;96805.06;5071271;28;20543;-67
2022/11/12 03:57:21;;;;;;;;;;;;;;;6.00;71.66;96883.47;5071756;28;20013;-66
2022/11/12 03:59:46;;;;;;;;;;;;;;;5.85;72.40;96885.75;5072444;28;20086;-66
2022/11/12 04:02:13;;;;;;;;;;;;;;;5.73;72.89;96877.81;5069654;28;20372;-66
2022/11/12 04:10:06;;;;;;;;;;;;;;;5.89;72.66;96871.84;5071462;28;20119;-66
2022/11/12 04:13:31;;;;;;;;;;;;;;;5.79;73.55;96876.13;5069738;28;20381;-66
2022/11/12 04:15:26;;;;;;;;;;;;;;;6.55;71.87;96872.41;5060552;28;20082;-66
2022/11/12 04:23:19;;;;;;;;;;;;;;;6.15;70.66;96875.88;5072211;28;20063;-67
2022/11/12 04:28:28;;;;;;;;;;;;;;;5.69;72.86;96880.13;5004978;28;20068;-71
2022/11/12 04:30:53;;;;;;;;;;;;;;;5.25;73.61;96872.75;5008275;28;20014;-71
2022/11/12 04:33:19;;;;;;;;;;;;;;;5.46;73.38;96880.09;5010893;28;20058;-71
2022/11/12 04:35:44;;;;;;;;;;;;;;;5.38;74.43;96883.09;5010319;28;20018;-71
2022/11/12 04:38:09;;;;;;;;;;;;;;;5.61;74.19;96884.94;5010808;28;20018;-71
2022/11/12 04:46:03;;;;;;;;;;;;;;;6.23;72.43;96887.88;5010679;28;20021;-71
2022/11/12 04:48:29;;;;;;;;;;;;;;;6.16;71.55;96881.94;5011353;28;20061;-71
2022/11/12 04:52:03;;;;;;;;;;;;;;;6.28;71.20;96881.91;5009775;28;20046;-71
2022/11/12 04:53:49;;;;;;;;;;;;;;;5.74;72.17;96882.88;5010477;28;20021;-69
2022/11/12 04:56:15;;;;;;;;;;;;;;;5.36;73.75;96877.22;5010354;28;20018;-69
2022/11/12 04:58:40;;;;;;;;;;;;;;;5.48;74.01;96880.69;5005888;28;20081;-69
2022/11/12 05:01:05;;;;;;;;;;;;;;;4.83;75.85;96885.94;4999684;28;20018;-72
2022/11/12 05:03:30;;;;;;;;;;;;;;;5.06;75.46;96883.34;5010407;28;20127;-70
2022/11/12 05:06:02;;;;;;;;;;;;;;;4.96;76.20;96880.47;5010710;28;20014;-70
2022/11/12 05:08:28;;;;;;;;;;;;;;;5.05;76.31;96892.31;5010543;28;20006;-69
2022/11/12 05:10:53;;;;;;;;;;;;;;;5.04;76.64;96890.72;5011426;28;20064;-69
2022/11/12 05:13:18;;;;;;;;;;;;;;;5.78;75.49;96885.84;5010759;28;20054;-69
2022/11/12 05:15:43;;;;;;;;;;;;;;;6.09;73.70;96884.72;5008227;28;20064;-69
2022/11/12 05:18:08;;;;;;;;;;;;;;;5.18;75.55;96886.84;5010780;28;22033;-69
2022/11/12 05:20:34;;;;;;;;;;;;;;;5.19;75.86;96879.72;5011070;28;20493;-69
2022/11/12 05:22:59;;;;;;;;;;;;;;;4.95;76.45;96884.13;5010891;28;20006;-70
2022/11/12 05:25:24;;;;;;;;;;;;;;;5.07;76.25;96878.91;5009953;28;20014;-70
2022/11/12 05:27:50;;;;;;;;;;;;;;;5.49;75.01;96887.56;5025403;28;20019;-71
2022/11/12 05:30:15;;;;;;;;;;;;;;;5.21;74.84;96880.28;5009842;28;20014;-69
2022/11/12 05:32:40;;;;;;;;;;;;;;;5.12;74.98;96874.56;5002262;28;20011;-68
2022/11/12 05:35:05;;;;;;;;;;;;;;;5.36;74.74;96878.03;4991070;28;20003;-67
2022/11/12 05:37:30;;;;;;;;;;;;;;;5.97;73.37;96890.00;5010820;28;20014;-68
2022/11/12 05:39:56;;;;;;;;;;;;;;;6.35;72.64;96882.59;5010541;28;20014;-68
2022/11/12 05:42:21;;;;;;;;;;;;;;;6.27;72.19;96880.31;5010747;28;20153;-68
2022/11/12 05:44:46;;;;;;;;;;;;;;;6.44;71.96;96875.88;5007984;28;20112;-67
2022/11/12 05:47:11;;;;;;;;;;;;;;;6.77;71.60;96876.00;5009934;28;20396;-69
2022/11/12 05:49:37;;;;;;;;;;;;;;;6.17;71.50;96884.34;5009837;28;20014;-70
2022/11/12 05:52:02;;;;;;;;;;;;;;;6.17;70.63;96884.34;5009861;28;20006;-70
2022/11/12 05:54:27;;;;;;;;;;;;;;;5.24;73.81;96882.50;5010150;28;20013;-70
2022/11/12 05:56:52;;;;;;;;;;;;;;;5.55;73.17;96889.28;5008923;28;20120;-69
2022/11/12 05:59:18;;;;;;;;;;;;;;;5.50;72.99;96891.81;5009942;28;20497;-70
2022/11/12 06:01:43;;;;;;;;;;;;;;;5.63;73.23;96894.25;5009750;28;20065;-69
2022/11/12 06:04:09;;;;;;;;;;;;;;;5.80;72.74;96899.63;5010941;28;20031;-69
2022/11/12 06:06:35;;;;;;;;;;;;;;;6.32;72.31;96890.97;5015801;28;20014;-69
2022/11/12 06:09:00;;;;;;;;;;;;;;;6.68;71.76;96898.56;5016178;28;20113;-69
2022/11/12 06:11:25;;;;;;;;;;;;;;;6.95;71.00;96900.63;5009736;28;20490;-69
2022/11/12 06:13:50;;;;;;;;;;;;;;;7.22;70.65;96899.03;5010550;28;20120;-69
2022/11/12 06:16:15;;;;;;;;;;;;;;;7.43;70.20;96894.06;5008383;28;20014;-69
2022/11/12 06:18:40;;;;;;;;;;;;;;;7.58;69.26;96904.09;5010506;28;20006;-69
2022/11/12 06:21:20;;;;;;;;;;;;;;;7.56;68.54;96905.13;5007301;28;20010;-69
2022/11/12 06:23:46;;;;;;;;;;;;;;;7.68;68.03;96907.69;5017539;28;20057;-69
2022/11/12 06:26:11;;;;;;;;;;;;;;;7.75;67.26;96907.53;5029738;28;20018;-69
2022/11/12 06:28:36;;;;;;;;;;;;;;;7.81;66.51;96910.00;5009887;28;20104;-70
2022/11/12 06:31:01;;;;;;;;;;;;;;;7.82;66.64;96901.00;5008341;28;20168;-69
2022/11/12 06:33:27;;;;;;;;;;;;;;;7.80;65.89;96899.66;5009700;28;20017;-69
2022/11/12 06:36:01;;;;;;;;;;;;;;;7.58;65.39;96896.16;5006941;28;20021;-69
2022/11/12 06:38:30;;;;;;;;;;;;;;;7.21;65.95;96899.25;5010452;28;20006;-70
2022/11/12 06:40:56;;;;;;;;;;;;;;;6.78;66.66;96904.06;5014073;28;20021;-69
2022/11/12 06:43:21;;;;;;;;;;;;;;;5.29;71.77;96905.56;5016979;28;20006;-69
2022/11/12 06:45:46;;;;;;;;;;;;;;;4.88;73.63;96910.59;5013678;28;20486;-69
2022/11/12 06:48:11;;;;;;;;;;;;;;;4.82;75.09;96916.78;5015398;28;20054;-69
2022/11/12 06:50:37;;;;;;;;;;;;;;;4.98;74.80;96915.34;5014390;28;20017;-70
2022/11/12 06:53:02;;;;;;;;;;;;;;;5.55;73.59;96914.88;5016743;28;20088;-69
2022/11/12 06:55:27;;;;;;;;;;;;;;;6.36;72.02;96915.91;5012356;28;20403;-69
2022/11/12 06:57:52;;;;;;;;;;;;;;;6.21;70.22;96911.91;5014108;28;20116;-69
2022/11/12 07:00:18;;;;;;;;;;;;;;;6.66;69.87;96910.44;5015364;28;20470;-70
2022/11/12 07:02:43;;;;;;;;;;;;;;;5.93;69.51;96917.09;5013294;28;20013;-71
2022/11/12 07:05:08;;;;;;;;;;;;;;;6.05;70.37;96914.47;5012787;28;20020;-70
2022/11/12 07:07:33;;;;;;;;;;;;;;;5.60;71.18;96913.16;5014701;28;20467;-70
2022/11/12 07:09:59;;;;;;;;;;;;;;;4.92;73.49;96910.97;5016563;28;20006;-71
2022/11/12 07:12:24;;;;;;;;;;;;;;;5.37;72.39;96915.78;5015970;28;20049;-72
2022/11/12 07:14:49;;;;;;;;;;;;;;;5.90;71.99;96920.19;5014919;28;20010;-71
2022/11/12 07:17:14;;;;;;;;;;;;;;;4.82;73.22;96921.25;5015141;28;20478;-70
2022/11/12 07:19:39;;;;;;;;;;;;;;;4.53;75.03;96921.00;5014784;28;20019;-72
2022/11/12 07:22:05;;;;;;;;;;;;;;;5.11;75.09;96920.41;5014058;28;20022;-70
2022/11/12 07:24:30;;;;;;;;;;;;;;;5.53;73.23;96916.94;5016427;28;20080;-69
2022/11/12 07:26:55;;;;;;;;;;;;;;;5.45;73.48;96920.72;5015077;28;20018;-69
2022/11/12 07:29:20;;;;;;;;;;;;;;;6.19;71.40;96924.56;5014994;28;20057;-70
2022/11/12 07:31:45;;;;;;;;;;;;;;;6.75;71.12;96915.09;5014885;28;20016;-65
2022/11/12 07:34:10;;;;;;;;;;;;;;;6.66;68.78;96913.88;5016068;28;20010;-67
2022/11/12 07:36:36;;;;;;;;;;;;;;;6.38;70.23;96913.84;5013463;28;20010;-69
2022/11/12 07:39:01;;;;;;;;;;;;;;;6.03;70.09;96917.31;5015350;28;20361;-69
2022/11/12 07:41:27;;;;;;;;;;;;;;;6.32;71.10;96912.94;5013830;28;20011;-71
2022/11/12 07:43:52;;;;;;;;;;;;;;;6.92;69.06;96917.00;5006972;28;20013;-71
2022/11/12 07:46:24;;;;;;;;;;;;;;;6.83;68.06;96913.94;5010173;28;20014;-70
2022/11/12 07:48:49;;;;;;;;;;;;;;;6.93;68.20;96903.53;5004700;28;20018;-70
2022/11/12 07:51:22;;;;;;;;;;;;;;;7.73;67.60;96914.94;5011503;28;20707;-70
2022/11/12 07:53:48;;;;;;;;;;;;;;;6.82;67.83;96914.97;5011519;28;20375;-71
2022/11/12 07:56:17;;;;;;;;;;;;;;;6.77;69.68;96920.97;5011128;28;20017;-71
2022/11/12 07:58:44;;;;;;;;;;;;;;;7.85;67.49;96909.53;5007742;28;20015;-72
2022/11/12 08:01:09;;;;;;;;;;;;;;;8.39;66.37;96909.75;5005732;28;20002;-72
2022/11/12 08:03:34;;;;;;;;;;;;;;;8.77;64.73;96904.38;5003657;28;20033;-72
2022/11/12 08:06:00;;;;;;;;;;;;;;;8.99;62.91;96895.56;5010758;28;20061;-71
2022/11/12 08:08:25;;;;;;;;;;;;;;;9.23;61.87;96898.72;5009774;28;20025;-69
2022/11/12 08:10:55;;;;;;;;;;;;;;;9.50;61.85;96899.47;5010593;28;20065;-68
2022/11/12 08:13:20;;;;;;;;;;;;;;;9.54;59.73;96900.59;5010859;28;20018;-75
2022/11/12 08:15:45;;;;;;;;;;;;;;;10.00;60.80;96905.41;5011027;28;20097;-69
2022/11/12 08:18:10;;;;;;;;;;;;;;;10.41;60.37;96904.59;5012294;28;20489;-75
2022/11/12 08:20:37;;;;;;;;;;;;;;;10.57;58.89;96907.34;5010100;28;20224;-73
2022/11/12 08:23:02;;;;;;;;;;;;;;;10.70;58.17;96914.03;5009472;28;20097;-73
2022/11/12 08:25:28;;;;;;;;;;;;;;;11.04;58.34;96914.41;5009554;28;20324;-72
2022/11/12 08:27:57;;;;;;;;;;;;;;;11.27;57.21;96916.59;5003084;28;20383;-72
2022/11/12 08:30:22;;;;;;;;;;;;;;;11.59;56.61;96923.53;5003374;28;20017;-72
2022/11/12 08:32:54;;;;;;;;;;;;;;;11.83;55.96;96916.63;5011381;28;20010;-74
2022/11/12 08:35:19;;;;;;;;;;;;;;;11.94;55.21;96912.88;5005301;28;20017;-71
2022/11/12 08:37:44;;;;;;;;;;;;;;;12.11;55.24;96911.78;5010581;28;20125;-72
2022/11/12 08:40:09;;;;;;;;;;;;;;;12.14;54.73;96914.72;5008595;28;20050;-70
2022/11/12 08:42:35;;;;;;;;;;;;;;;11.97;53.78;96915.00;5011828;28;20006;-69
2022/11/12 08:45:00;;;;;;;;;;;;;;;12.10;54.60;96923.53;5008744;28;20873;-70
2022/11/12 08:47:25;;;;;;;;;;;;;;;12.23;53.85;96925.63;5010869;28;20041;-70
2022/11/12 08:49:50;;;;;;;;;;;;;;;12.41;53.66;96919.72;5009326;28;20491;-70
2022/11/12 08:52:15;;;;;;;;;;;;;;;12.48;53.61;96920.22;5010293;28;20015;-69
2022/11/12 08:54:41;;;;;;;;;;;;;;;12.67;53.57;96916.94;5010351;28;20021;-68
2022/11/12 08:57:06;;;;;;;;;;;;;;;12.68;52.89;96908.66;5008931;28;20018;-72
2022/11/12 08:59:31;;;;;;;;;;;;;;;12.86;52.78;96904.59;5005329;28;20017;-70
2022/11/12 09:01:56;;;;;;;;;;;;;;;12.95;52.33;96902.94;5009117;28;20014;-69
2022/11/12 09:04:21;;;;;;;;;;;;;;;12.97;51.60;96910.66;5005444;28;20014;-72
2022/11/12 09:06:46;;;;;;;;;;;;;;;13.00;51.69;96913.59;5009725;28;20057;-71
2022/11/12 09:09:12;;;;;;;;;;;;;;;13.04;51.60;96905.81;5010054;28;20014;-69
2022/11/12 09:11:37;;;;;;;;;;;;;;;13.15;51.61;96911.88;5006080;28;20017;-68
2022/11/12 09:14:02;;;;;;;;;;;;;;;13.25;51.30;96918.00;5009881;28;20069;-70
2022/11/12 09:16:27;;;;;;;;;;;;;;;13.36;51.32;96913.41;5025035;28;20014;-74
2022/11/12 09:18:53;;;;;;;;;;;;;;;13.42;51.46;96906.94;5027100;28;20018;-70
2022/11/12 09:21:23;;;;;;;;;;;;;;;13.53;50.94;96911.13;5013111;28;20037;-70
2022/11/12 09:23:48;;;;;;;;;;;;;;;13.73;50.80;96917.41;5010440;28;20093;-70
2022/11/12 09:26:13;;;;;;;;;;;;;;;13.76;50.47;96922.16;5011590;28;20113;-69
2022/11/12 09:28:39;;;;;;;;;;;;;;;11.57;53.79;96925.69;5010243;28;20455;-69
2022/11/12 09:31:05;;;;;;;;;;;;;;;11.68;54.45;96921.94;5009673;28;20013;-70
2022/11/12 09:33:31;;;;;;;;;;;;;;;10.53;57.54;96928.31;5009931;28;20025;-69
2022/11/12 09:35:59;;;;;;;;;;;;;;;10.84;57.80;96929.25;5009225;28;20015;-69
2022/11/12 09:38:24;;;;;;;;;;;;;;;10.67;58.52;96924.13;5010633;28;20006;-69
2022/11/12 09:40:49;;;;;;;;;;;;;;;10.21;59.97;96931.06;5009573;28;20017;-72
2022/11/12 09:43:22;;;;;;;;;;;;;;;11.27;57.55;96932.56;5008806;28;20018;-68
2022/11/12 09:45:48;;;;;;;;;;;;;;;11.39;57.57;96927.78;5007186;28;20014;-68
2022/11/12 09:48:16;;;;;;;;;;;;;;;11.12;58.31;96930.66;5011772;28;20014;-69
2022/11/12 09:50:49;;;;;;;;;;;;;;;12.10;57.19;96921.66;5009761;28;20018;-70
2022/11/12 09:53:20;;;;;;;;;;;;;;;12.25;54.70;96931.50;5010060;28;20066;-68
2022/11/12 09:55:48;;;;;;;;;;;;;;;11.87;54.88;96915.00;5006228;28;20461;-69
2022/11/12 09:58:14;;;;;;;;;;;;;;;12.53;55.32;96924.72;5005865;28;20344;-70
2022/11/12 10:00:51;;;;;;;;;;;;;;;12.61;54.35;96926.84;5003800;28;20014;-70
2022/11/12 10:03:28;;;;;;;;;;;;;;;13.12;52.99;96918.59;4995696;28;20676;-69
2022/11/12 10:06:02;;;;;;;;;;;;;;;13.25;52.83;96923.34;5009285;28;20014;-69
2022/11/12 10:08:46;;;;;;;;;;;;;;;13.58;51.82;96921.00;5002309;28;20078;-68
2022/11/12 10:11:30;;;;;;;;;;;;;;;13.72;51.67;96916.59;5010816;28;20057;-68
2022/11/12 10:13:56;;;;;;;;;;;;;;;14.05;51.37;96914.97;5013832;28;20067;-69
2022/11/12 10:19:08;;;;;;;;;;;;;;;12.40;54.05;96907.44;5008646;28;20064;-70
2022/11/12 10:21:52;;;;;;;;;;;;;;;11.82;56.11;96900.88;5000981;28;20006;-70
2022/11/12 10:24:19;;;;;;;;;;;;;;;12.33;56.16;96900.78;5010504;28;20017;-69
2022/11/12 10:26:44;;;;;;;;;;;;;;;12.70;54.53;96895.06;5010200;28;20061;-70
2022/11/12 10:29:09;;;;;;;;;;;;;;;12.63;54.70;96902.53;5008502;28;20490;-70
2022/11/12 10:31:35;;;;;;;;;;;;;;;12.97;54.71;96892.75;5007773;28;20092;-71
2022/11/12 10:34:13;;;;;;;;;;;;;;;13.21;53.96;96886.75;5010526;28;20025;-70
2022/11/12 10:36:41;;;;;;;;;;;;;;;13.56;53.11;96884.91;5007899;28;20022;-71
2022/11/12 10:39:06;;;;;;;;;;;;;;;13.79;53.13;96876.16;5011642;28;20006;-68
2022/11/12 10:41:32;;;;;;;;;;;;;;;14.00;52.59;96876.75;5008555;28;20018;-68
2022/11/12 10:43:59;;;;;;;;;;;;;;;13.86;51.89;96873.94;5010173;28;20375;-70
2022/11/12 10:46:26;;;;;;;;;;;;;;;14.07;51.70;96877.22;5010738;28;20014;-68
2022/11/12 10:48:53;;;;;;;;;;;;;;;14.28;51.38;96873.25;5009159;28;20021;-68
2022/11/12 10:51:22;;;;;;;;;;;;;;;14.54;51.05;96867.63;5010071;28;20014;-70
2022/11/12 10:53:47;;;;;;;;;;;;;;;14.42;50.47;96868.00;5008517;28;20383;-68
2022/11/12 10:56:29;;;;;;;;;;;;;;;14.72;50.01;96855.34;5011067;28;20052;-68
2022/11/12 10:59:24;;;;;;;;;;;;;;;14.43;50.47;96858.88;5009625;28;20015;-70
2022/11/12 11:01:56;;;;;;;;;;;;;;;14.80;50.86;96855.50;5002162;28;20026;-68
2022/11/12 11:04:26;;;;;;;;;;;;;;;14.84;50.03;96850.34;5013217;28;20017;-69
2022/11/12 11:06:59;;;;;;;;;;;;;;;13.61;52.84;96850.91;4992676;28;20495;-71
2022/11/12 11:09:25;;;;;;;;;;;;;;;14.31;51.44;96851.25;5018721;28;20014;-70
2022/11/12 11:11:52;;;;;;;;;;;;;;;13.05;53.96;96847.84;5008961;28;20113;-71
2022/11/12 11:14:20;;;;;;;;;;;;;;;14.00;52.67;96845.44;5010168;28;20013;-71
2022/11/12 11:16:48;;;;;;;;;;;;;;;14.32;52.24;96844.03;5007150;28;20014;-72
2022/11/12 11:19:13;;;;;;;;;;;;;;;14.62;51.32;96840.19;5007899;28;20012;-71
2022/11/12 11:21:48;;;;;;;;;;;;;;;14.77;50.17;96831.97;5008008;28;20072;-70
2022/11/12 11:24:13;;;;;;;;;;;;;;;13.94;51.92;96832.41;5008545;28;20035;-71
2022/11/12 11:26:38;;;;;;;;;;;;;;;13.27;54.87;96834.91;5008784;28;20509;-72
2022/11/12 11:29:16;;;;;;;;;;;;;;;14.26;52.32;96829.91;5011571;28;20021;-71
2022/11/12 11:31:47;;;;;;;;;;;;;;;13.64;53.80;96828.16;5009702;28;20014;-71
2022/11/12 11:34:15;;;;;;;;;;;;;;;12.85;55.40;96828.22;5012750;28;20010;-70
2022/11/12 11:36:53;;;;;;;;;;;;;;;13.41;54.72;96825.16;5010365;28;20014;-71
2022/11/12 11:39:47;;;;;;;;;;;;;;;13.20;55.21;96829.03;5012958;28;20010;-70
2022/11/12 11:42:15;;;;;;;;;;;;;;;13.60;54.56;96827.13;4993191;28;20173;-72
2022/11/12 11:44:48;;;;;;;;;;;;;;;14.01;53.27;96820.28;5011240;28;20060;-72
2022/11/12 11:47:26;;;;;;;;;;;;;;;13.84;53.22;96816.47;5010199;28;20073;-69
2022/11/12 11:49:54;;;;;;;;;;;;;;;14.15;53.19;96817.72;5012378;28;20568;-71
2022/11/12 11:52:38;;;;;;;;;;;;;;;13.77;53.25;96814.13;5012621;28;20022;-71
2022/11/12 11:55:15;;;;;;;;;;;;;;;14.21;52.63;96811.22;5010647;28;20014;-70
2022/11/12 11:57:54;;;;;;;;;;;;;;;14.07;52.66;96809.53;5011389;28;20013;-70
2022/11/12 12:00:19;;;;;;;;;;;;;;;13.84;53.71;96803.91;5010033;28;20018;-72
2022/11/12 12:02:56;;;;;;;;;;;;;;;13.69;54.37;96804.84;5011788;28;20010;-71
2022/11/12 12:05:30;;;;;;;;;;;;;;;13.58;54.66;96797.22;5012416;28;20021;-70
2022/11/12 12:07:59;;;;;;;;;;;;;;;12.66;57.13;96795.22;5011398;28;20108;-71
2022/11/12 12:10:29;;;;;;;;;;;;;;;12.63;57.55;96790.41;5010161;28;20065;-71
2022/11/12 12:13:08;;;;;;;;;;;;;;;12.16;58.92;96797.06;5011439;28;20014;-69
2022/11/12 12:15:36;;;;;;;;;;;;;;;13.31;56.07;96797.69;5009125;28;20379;-70
2022/11/12 12:18:20;;;;;;;;;;;;;;;11.99;59.43;96791.28;5011675;28;20446;-70
2022/11/12 12:20:51;;;;;;;;;;;;;;;12.51;58.20;96787.28;5008822;28;20023;-70
2022/11/12 12:23:26;;;;;;;;;;;;;;;13.47;56.11;96785.81;5012819;28;20007;-70
2022/11/12 12:25:53;;;;;;;;;;;;;;;14.29;54.05;96781.16;5010390;28;20026;-71
2022/11/12 12:28:25;;;;;;;;;;;;;;;14.33;52.94;96786.75;5011507;28;20553;-70
2022/11/12 12:30:52;;;;;;;;;;;;;;;14.86;52.38;96791.94;5011671;28;20022;-70
2022/11/12 12:33:17;;;;;;;;;;;;;;;15.30;50.88;96786.16;5010420;28;20549;-70
2022/11/12 12:35:52;;;;;;;;;;;;;;;15.51;50.19;96778.56;5009982;28;20011;-71
2022/11/12 12:38:23;;;;;;;;;;;;;;;15.28;49.82;96774.13;5009849;28;20069;-71
2022/11/12 12:40:51;;;;;;;;;;;;;;;15.45;49.99;96769.00;5012416;28;20002;-71
2022/11/12 12:43:18;;;;;;;;;;;;;;;15.52;49.72;96774.78;5010327;28;20449;-71
2022/11/12 12:45:45;;;;;;;;;;;;;;;15.05;50.07;96765.13;5006361;28;20422;-72
2022/11/12 12:48:16;;;;;;;;;;;;;;;15.47;49.68;96761.47;5010391;28;20018;-71
2022/11/12 12:50:42;;;;;;;;;;;;;;;15.25;49.96;96755.94;5010058;28;20037;-71
2022/11/12 12:53:29;;;;;;;;;;;;;;;15.33;49.24;96755.25;5011353;28;20474;-71
2022/11/12 12:55:59;;;;;;;;;;;;;;;14.65;51.41;96758.50;5010481;28;20020;-70
2022/11/12 12:58:28;;;;;;;;;;;;;;;15.09;50.99;96750.81;5009903;28;20010;-72
2022/11/12 13:01:02;;;;;;;;;;;;;;;15.37;49.95;96756.28;5011880;28;20410;-72
2022/11/12 13:03:50;;;;;;;;;;;;;;;14.51;51.67;96751.19;5012097;28;20012;-72
2022/11/12 13:06:23;;;;;;;;;;;;;;;14.28;52.16;96749.34;5006866;28;20021;-73
2022/11/12 13:08:48;;;;;;;;;;;;;;;13.31;55.06;96742.41;5009624;28;20174;-71
2022/11/12 13:12:20;;;;;;;;;;;;;;;13.32;55.01;96746.66;5010367;28;20091;-72
2022/11/12 13:14:38;;;;;;;;;;;;;;;14.34;53.24;96732.13;5009749;28;20018;-72
2022/11/12 13:17:04;;;;;;;;;;;;;;;14.52;52.52;96734.03;5001963;28;20116;-72
2022/11/12 13:19:44;;;;;;;;;;;;;;;14.91;51.87;96732.91;5009888;28;20011;-72